createdAt,value
2019-06-10T00:00:51.930Z,18.39
2019-06-10T00:01:51.897Z,18.40
2019-06-10T00:02:51.868Z,18.43
2019-06-10T00:03:51.964Z,18.43
2019-06-10T00:04:51.848Z,18.46
2019-06-10T00:05:51.887Z,18.46
2019-06-10T00:06:51.826Z,18.47
2019-06-10T00:07:51.840Z,18.47
2019-06-10T00:08:51.801Z,18.49
2019-06-10T00:09:51.789Z,18.50
2019-06-10T00:10:51.811Z,18.54
2019-06-10T00:11:51.802Z,18.55
2019-06-10T00:12:55.179Z,18.55
2019-06-10T00:13:51.757Z,18.55
2019-06-10T00:14:51.751Z,18.55
2019-06-10T00:15:51.770Z,18.52
2019-06-10T00:16:51.710Z,18.50
2019-06-10T00:18:01.369Z,18.46
2019-06-10T00:18:52.689Z,18.46
2019-06-10T00:19:51.696Z,18.46
2019-06-10T00:20:51.708Z,18.49
2019-06-10T00:21:51.660Z,18.50
2019-06-10T00:22:51.651Z,18.54
2019-06-10T00:23:51.920Z,18.50
2019-06-10T00:24:52.186Z,18.52
2019-06-10T00:25:51.745Z,18.55
2019-06-10T00:26:51.608Z,18.55
2019-06-10T00:27:51.625Z,18.52
2019-06-10T00:28:51.594Z,18.52
2019-06-10T00:29:51.581Z,18.54
2019-06-10T00:30:51.716Z,18.55
2019-06-10T00:31:51.604Z,18.55
2019-06-10T00:32:51.689Z,18.55
2019-06-10T00:33:52.045Z,18.57
2019-06-10T00:34:51.543Z,18.57
2019-06-10T00:35:51.628Z,18.55
2019-06-10T00:36:51.496Z,18.57
2019-06-10T00:37:51.510Z,18.46
2019-06-10T00:38:51.868Z,18.36
2019-06-10T00:39:51.495Z,18.31
2019-06-10T00:40:51.537Z,18.25
2019-06-10T00:41:52.135Z,18.22
2019-06-10T00:42:51.436Z,18.17
2019-06-10T00:43:51.808Z,18.13
2019-06-10T00:44:51.432Z,18.13
2019-06-10T00:45:51.562Z,18.13
2019-06-10T00:46:51.783Z,18.17
2019-06-10T00:48:06.578Z,18.19
2019-06-10T00:48:52.381Z,18.22
2019-06-10T00:49:51.613Z,18.24
2019-06-10T00:50:51.862Z,18.25
2019-06-10T00:51:51.335Z,18.28
2019-06-10T00:52:51.788Z,18.25
2019-06-10T00:53:51.560Z,18.19
2019-06-10T00:54:51.884Z,18.18
2019-06-10T00:55:51.684Z,18.18
2019-06-10T00:56:51.837Z,18.18
2019-06-10T00:57:51.275Z,18.21
2019-06-10T00:58:51.519Z,18.22
2019-06-10T00:59:51.275Z,18.24
2019-06-10T01:00:51.827Z,18.24
2019-06-10T01:01:51.225Z,18.27
2019-06-10T01:02:51.806Z,18.28
2019-06-10T01:03:51.236Z,18.29
2019-06-10T01:04:51.464Z,18.29
2019-06-10T01:05:51.221Z,18.28
2019-06-10T01:06:51.631Z,18.27
2019-06-10T01:07:51.156Z,18.28
2019-06-10T01:08:51.372Z,18.31
2019-06-10T01:09:51.716Z,18.36
2019-06-10T01:10:52.199Z,18.40
2019-06-10T01:11:51.957Z,18.42
2019-06-10T01:12:51.404Z,18.40
2019-06-10T01:13:51.180Z,18.42
2019-06-10T01:14:51.724Z,18.39
2019-06-10T01:15:51.240Z,18.37
2019-06-10T01:16:51.057Z,18.37
2019-06-10T01:17:51.220Z,18.37
2019-06-10T01:18:53.438Z,18.37
2019-06-10T01:19:51.074Z,18.39
2019-06-10T01:20:51.732Z,18.36
2019-06-10T01:21:51.349Z,18.36
2019-06-10T01:22:51.638Z,18.31
2019-06-10T01:23:51.128Z,18.29
2019-06-10T01:24:51.184Z,18.28
2019-06-10T01:25:51.166Z,18.31
2019-06-10T01:26:50.956Z,18.34
2019-06-10T01:27:51.540Z,18.34
2019-06-10T01:28:51.617Z,18.33
2019-06-10T01:29:51.199Z,18.33
2019-06-10T01:30:51.717Z,18.31
2019-06-10T01:31:51.356Z,18.28
2019-06-10T01:32:50.909Z,18.28
2019-06-10T01:33:51.450Z,18.28
2019-06-10T01:34:50.949Z,18.25
2019-06-10T01:35:51.479Z,18.27
2019-06-10T01:36:51.058Z,18.24
2019-06-10T01:37:52.007Z,18.21
2019-06-10T01:38:51.299Z,18.21
2019-06-10T01:39:51.528Z,18.21
2019-06-10T01:40:51.081Z,18.21
2019-06-10T01:41:51.179Z,18.21
2019-06-10T01:42:50.770Z,18.21
2019-06-10T01:43:51.246Z,18.19
2019-06-10T01:44:50.777Z,18.21
2019-06-10T01:45:51.181Z,18.22
2019-06-10T01:46:51.628Z,18.22
2019-06-10T01:47:51.186Z,18.24
2019-06-10T01:48:52.046Z,18.24
2019-06-10T01:49:51.691Z,18.21
2019-06-10T01:50:51.248Z,18.17
2019-06-10T01:51:51.512Z,18.17
2019-06-10T01:52:51.573Z,18.15
2019-06-10T01:53:51.486Z,18.17
2019-06-10T01:54:51.517Z,18.15
2019-06-10T01:55:51.955Z,18.17
2019-06-10T01:56:51.214Z,18.18
2019-06-10T01:57:51.876Z,18.18
2019-06-10T01:58:51.329Z,18.18
2019-06-10T01:59:50.999Z,18.17
2019-06-10T02:00:50.815Z,18.18
2019-06-10T02:01:51.743Z,18.18
2019-06-10T02:02:52.363Z,18.07
2019-06-10T02:03:51.865Z,17.97
2019-06-10T02:04:51.739Z,17.84
2019-06-10T02:05:51.678Z,17.69
2019-06-10T02:06:51.151Z,17.62
2019-06-10T02:07:51.597Z,17.62
2019-06-10T02:08:51.010Z,17.62
2019-06-10T02:09:51.730Z,17.62
2019-06-10T02:10:50.930Z,17.57
2019-06-10T02:11:51.396Z,17.54
2019-06-10T02:12:50.846Z,17.51
2019-06-10T02:13:51.547Z,17.53
2019-06-10T02:14:50.938Z,17.53
2019-06-10T02:15:51.396Z,17.54
2019-06-10T02:16:50.748Z,17.54
2019-06-10T02:17:50.991Z,17.55
2019-06-10T02:19:00.233Z,17.57
2019-06-10T02:19:51.365Z,17.63
2019-06-10T02:20:51.408Z,17.67
2019-06-10T02:21:51.038Z,17.74
2019-06-10T02:22:51.539Z,17.79
2019-06-10T02:23:52.035Z,17.84
2019-06-10T02:24:50.689Z,17.88
2019-06-10T02:25:51.275Z,17.91
2019-06-10T02:26:51.600Z,17.94
2019-06-10T02:27:50.759Z,17.95
2019-06-10T02:28:51.226Z,17.95
2019-06-10T02:29:50.723Z,17.99
2019-06-10T02:30:55.129Z,18.02
2019-06-10T02:31:52.144Z,18.06
2019-06-10T02:32:52.403Z,18.10
2019-06-10T02:33:52.340Z,18.15
2019-06-10T02:35:03.630Z,18.21
2019-06-10T02:35:53.805Z,18.24
2019-06-10T02:36:53.434Z,18.25
2019-06-10T02:37:50.197Z,18.25
2019-06-10T02:38:53.723Z,18.24
2019-06-10T02:39:50.162Z,18.19
2019-06-10T02:40:53.587Z,18.13
2019-06-10T02:41:53.341Z,18.09
2019-06-10T02:42:50.114Z,18.04
2019-06-10T02:43:53.169Z,18.02
2019-06-10T02:44:53.878Z,18.00
2019-06-10T02:45:52.909Z,17.94
2019-06-10T02:46:50.093Z,17.92
2019-06-10T02:47:53.117Z,17.89
2019-06-10T02:48:50.079Z,17.85
2019-06-10T02:49:59.127Z,17.81
2019-06-10T02:50:53.872Z,17.76
2019-06-10T02:51:50.068Z,17.73
2019-06-10T02:52:52.928Z,17.69
2019-06-10T02:53:53.543Z,17.64
2019-06-10T02:54:53.143Z,17.63
2019-06-10T02:55:53.545Z,17.59
2019-06-10T02:56:53.425Z,17.62
2019-06-10T02:57:49.948Z,17.59
2019-06-10T02:58:53.253Z,17.62
2019-06-10T02:59:49.932Z,17.63
2019-06-10T03:00:49.918Z,17.63
2019-06-10T03:01:49.927Z,17.62
2019-06-10T03:02:52.938Z,17.57
2019-06-10T03:03:51.098Z,17.54
2019-06-10T03:04:49.889Z,17.50
2019-06-10T03:05:53.413Z,17.48
2019-06-10T03:06:49.891Z,17.48
2019-06-10T03:07:53.104Z,17.53
2019-06-10T03:08:49.859Z,17.54
2019-06-10T03:09:49.822Z,17.54
2019-06-10T03:10:49.815Z,17.55
2019-06-10T03:11:53.319Z,17.57
2019-06-10T03:12:49.802Z,17.59
2019-06-10T03:13:49.769Z,17.62
2019-06-10T03:14:49.780Z,17.59
2019-06-10T03:15:52.120Z,17.62
2019-06-10T03:16:49.760Z,17.59
2019-06-10T03:17:52.009Z,17.59
2019-06-10T03:18:49.738Z,17.63
2019-06-10T03:19:50.778Z,17.66
2019-06-10T03:20:49.701Z,17.63
2019-06-10T03:21:52.046Z,17.57
2019-06-10T03:22:49.701Z,17.44
2019-06-10T03:23:49.661Z,17.35
2019-06-10T03:24:49.651Z,17.29
2019-06-10T03:25:49.645Z,17.29
2019-06-10T03:26:52.064Z,17.26
2019-06-10T03:27:49.644Z,17.06
2019-06-10T03:28:51.925Z,16.83
2019-06-10T03:29:49.623Z,16.60
2019-06-10T03:30:55.305Z,16.35
2019-06-10T03:31:54.823Z,16.22
2019-06-10T03:32:49.601Z,16.11
2019-06-10T03:33:53.853Z,16.04
2019-06-10T03:34:49.552Z,16.04
2019-06-10T03:35:49.600Z,16.07
2019-06-10T03:36:49.552Z,16.09
2019-06-10T03:37:49.511Z,16.06
2019-06-10T03:38:49.501Z,16.04
2019-06-10T03:39:49.503Z,16.01
2019-06-10T03:40:49.472Z,15.99
2019-06-10T03:41:49.491Z,15.93
2019-06-10T03:42:51.914Z,15.93
2019-06-10T03:43:49.452Z,15.94
2019-06-10T03:44:49.433Z,15.96
2019-06-10T03:45:49.422Z,15.99
2019-06-10T03:46:49.453Z,16.03
2019-06-10T03:47:49.393Z,16.12
2019-06-10T03:48:49.391Z,16.23
2019-06-10T03:49:52.789Z,16.31
2019-06-10T03:50:52.351Z,16.41
2019-06-10T03:51:49.394Z,16.49
2019-06-10T03:52:49.360Z,16.52
2019-06-10T03:53:49.334Z,16.55
2019-06-10T03:54:49.322Z,16.53
2019-06-10T03:55:49.327Z,16.53
2019-06-10T03:56:49.325Z,16.55
2019-06-10T03:57:49.290Z,16.49
2019-06-10T03:58:49.314Z,16.44
2019-06-10T03:59:49.273Z,16.45
2019-06-10T04:00:49.287Z,16.53
2019-06-10T04:01:49.274Z,16.59
2019-06-10T04:02:49.235Z,16.68
2019-06-10T04:03:49.251Z,16.74
2019-06-10T04:04:49.227Z,16.77
2019-06-10T04:05:49.202Z,16.81
2019-06-10T04:06:49.200Z,16.85
2019-06-10T04:07:49.176Z,16.88
2019-06-10T04:08:49.193Z,16.89
2019-06-10T04:09:49.177Z,16.93
2019-06-10T04:10:49.144Z,16.98
2019-06-10T04:11:49.135Z,17.00
2019-06-10T04:12:49.151Z,17.07
2019-06-10T04:13:49.146Z,17.06
2019-06-10T04:14:49.104Z,17.06
2019-06-10T04:15:49.096Z,17.04
2019-06-10T04:16:49.084Z,17.06
2019-06-10T04:17:49.080Z,17.07
2019-06-10T04:18:49.103Z,17.10
2019-06-10T04:20:05.223Z,17.08
2019-06-10T04:20:52.737Z,17.00
2019-06-10T04:21:49.025Z,16.89
2019-06-10T04:22:49.015Z,16.85
2019-06-10T04:23:49.045Z,16.83
2019-06-10T04:24:48.989Z,16.81
2019-06-10T04:25:48.977Z,16.85
2019-06-10T04:26:48.975Z,16.92
2019-06-10T04:27:48.963Z,16.93
2019-06-10T04:28:48.988Z,16.95
2019-06-10T04:29:48.938Z,17.00
2019-06-10T04:30:48.936Z,17.03
2019-06-10T04:31:48.930Z,17.06
2019-06-10T04:32:48.923Z,17.08
2019-06-10T04:33:48.918Z,17.13
2019-06-10T04:34:48.886Z,17.14
2019-06-10T04:35:48.927Z,17.18
2019-06-10T04:36:48.864Z,17.18
2019-06-10T04:37:48.856Z,17.22
2019-06-10T04:38:48.878Z,17.20
2019-06-10T04:39:48.829Z,17.18
2019-06-10T04:40:48.818Z,17.18
2019-06-10T04:41:48.819Z,17.18
2019-06-10T04:42:48.799Z,17.15
2019-06-10T04:43:48.808Z,17.07
2019-06-10T04:44:48.799Z,16.93
2019-06-10T04:45:48.777Z,16.78
2019-06-10T04:46:48.759Z,16.73
2019-06-10T04:47:48.747Z,16.73
2019-06-10T04:48:48.756Z,16.71
2019-06-10T04:49:48.718Z,16.75
2019-06-10T04:50:48.737Z,16.70
2019-06-10T04:51:48.739Z,16.62
2019-06-10T04:52:48.746Z,16.62
2019-06-10T04:53:48.728Z,16.56
2019-06-10T04:54:48.707Z,16.45
2019-06-10T04:55:48.686Z,16.34
2019-06-10T04:56:48.669Z,16.23
2019-06-10T04:57:48.689Z,16.18
2019-06-10T04:58:48.644Z,16.23
2019-06-10T04:59:48.651Z,16.33
2019-06-10T05:00:48.667Z,16.45
2019-06-10T05:01:48.592Z,16.56
2019-06-10T05:02:48.588Z,16.68
2019-06-10T05:03:48.622Z,16.77
2019-06-10T05:04:48.550Z,16.83
2019-06-10T05:05:48.548Z,16.89
2019-06-10T05:06:48.533Z,16.95
2019-06-10T05:07:48.550Z,16.98
2019-06-10T05:08:48.531Z,17.00
2019-06-10T05:09:48.501Z,17.03
2019-06-10T05:10:48.502Z,17.03
2019-06-10T05:11:48.478Z,17.06
2019-06-10T05:12:48.470Z,17.08
2019-06-10T05:13:48.490Z,17.11
2019-06-10T05:14:48.447Z,17.13
2019-06-10T05:15:48.449Z,17.15
2019-06-10T05:16:48.440Z,17.17
2019-06-10T05:17:48.440Z,17.17
2019-06-10T05:18:51.641Z,17.20
2019-06-10T05:19:49.425Z,17.23
2019-06-10T05:20:56.049Z,17.26
2019-06-10T05:21:49.371Z,17.29
2019-06-10T05:22:48.388Z,17.32
2019-06-10T05:23:48.342Z,17.32
2019-06-10T05:24:48.338Z,17.33
2019-06-10T05:25:48.322Z,17.33
2019-06-10T05:26:48.318Z,17.33
2019-06-10T05:27:48.341Z,17.33
2019-06-10T05:28:48.303Z,17.35
2019-06-10T05:29:48.272Z,17.35
2019-06-10T05:30:48.292Z,17.36
2019-06-10T05:31:48.273Z,17.38
2019-06-10T05:32:48.285Z,17.38
2019-06-10T05:33:48.248Z,17.40
2019-06-10T05:34:48.298Z,17.40
2019-06-10T05:35:48.213Z,17.43
2019-06-10T05:36:48.230Z,17.44
2019-06-10T05:37:48.229Z,17.47
2019-06-10T05:38:48.186Z,17.50
2019-06-10T05:39:48.266Z,17.50
2019-06-10T05:40:48.161Z,17.46
2019-06-10T05:41:50.270Z,17.44
2019-06-10T05:42:48.143Z,17.44
2019-06-10T05:43:48.131Z,17.46
2019-06-10T05:44:48.133Z,17.46
2019-06-10T05:45:48.106Z,17.47
2019-06-10T05:46:48.093Z,17.46
2019-06-10T05:47:48.085Z,17.41
2019-06-10T05:48:48.074Z,17.41
2019-06-10T05:49:48.083Z,17.44
2019-06-10T05:51:00.141Z,17.44
2019-06-10T05:51:49.034Z,17.48
2019-06-10T05:52:48.035Z,17.47
2019-06-10T05:53:49.175Z,17.44
2019-06-10T05:54:48.027Z,17.44
2019-06-10T05:55:48.003Z,17.41
2019-06-10T05:56:47.983Z,17.40
2019-06-10T05:57:47.988Z,17.36
2019-06-10T05:58:48.009Z,17.35
2019-06-10T05:59:47.987Z,17.35
2019-06-10T06:00:47.978Z,17.33
2019-06-10T06:01:47.949Z,17.35
2019-06-10T06:02:47.958Z,17.32
2019-06-10T06:03:47.947Z,17.30
2019-06-10T06:04:47.935Z,17.30
2019-06-10T06:05:47.897Z,17.30
2019-06-10T06:06:47.922Z,17.30
2019-06-10T06:08:01.392Z,17.30
2019-06-10T06:08:48.854Z,17.29
2019-06-10T06:09:47.885Z,17.23
2019-06-10T06:10:47.827Z,17.23
2019-06-10T06:11:47.826Z,17.22
2019-06-10T06:12:47.882Z,17.20
2019-06-10T06:13:47.805Z,17.23
2019-06-10T06:14:47.825Z,17.23
2019-06-10T06:15:47.795Z,17.26
2019-06-10T06:16:47.783Z,17.28
2019-06-10T06:18:03.249Z,17.28
2019-06-10T06:18:48.745Z,17.29
2019-06-10T06:19:47.728Z,17.29
2019-06-10T06:20:47.723Z,17.28
2019-06-10T06:21:48.025Z,17.30
2019-06-10T06:22:47.696Z,17.30
2019-06-10T06:23:47.723Z,17.32
2019-06-10T06:24:47.707Z,17.38
2019-06-10T06:25:47.666Z,17.44
2019-06-10T06:26:47.697Z,17.48
2019-06-10T06:27:47.668Z,17.51
2019-06-10T06:28:47.667Z,17.53
2019-06-10T06:29:47.639Z,17.54
2019-06-10T06:30:47.637Z,17.50
2019-06-10T06:31:47.598Z,17.50
2019-06-10T06:32:47.587Z,17.50
2019-06-10T06:33:47.633Z,17.50
2019-06-10T06:34:47.567Z,17.48
2019-06-10T06:35:47.596Z,17.51
2019-06-10T06:36:47.578Z,17.48
2019-06-10T06:37:47.564Z,17.43
2019-06-10T06:38:47.557Z,17.40
2019-06-10T06:39:47.516Z,17.40
2019-06-10T06:40:47.508Z,17.40
2019-06-10T06:41:47.552Z,17.40
2019-06-10T06:42:47.526Z,17.41
2019-06-10T06:43:47.528Z,17.43
2019-06-10T06:44:47.505Z,17.46
2019-06-10T06:45:47.483Z,17.46
2019-06-10T06:46:47.430Z,17.48
2019-06-10T06:47:47.427Z,17.53
2019-06-10T06:48:47.441Z,17.54
2019-06-10T06:49:47.402Z,17.51
2019-06-10T06:51:01.722Z,17.38
2019-06-10T06:51:55.183Z,17.29
2019-06-10T06:53:19.005Z,17.29
2019-06-10T06:53:53.049Z,17.30
2019-06-10T06:54:48.350Z,17.36
2019-06-10T06:55:47.356Z,17.41
2019-06-10T06:56:47.321Z,17.46
2019-06-10T06:57:47.339Z,17.51
2019-06-10T06:58:47.306Z,17.57
2019-06-10T06:59:47.290Z,17.64
2019-06-10T07:01:03.647Z,17.69
2019-06-10T07:01:48.295Z,17.73
2019-06-10T07:02:47.259Z,17.78
2019-06-10T07:03:47.250Z,17.78
2019-06-10T07:04:47.266Z,17.79
2019-06-10T07:05:47.222Z,17.81
2019-06-10T07:06:47.242Z,17.82
2019-06-10T07:07:47.200Z,17.82
2019-06-10T07:09:00.453Z,17.85
2019-06-10T07:09:48.211Z,17.87
2019-06-10T07:10:47.182Z,17.85
2019-06-10T07:11:47.221Z,17.84
2019-06-10T07:12:47.171Z,17.84
2019-06-10T07:13:47.146Z,17.85
2019-06-10T07:14:47.142Z,17.87
2019-06-10T07:15:47.621Z,17.89
2019-06-10T07:16:47.132Z,17.94
2019-06-10T07:17:47.123Z,18.00
2019-06-10T07:18:50.156Z,18.06
2019-06-10T07:19:47.071Z,18.13
2019-06-10T07:20:47.073Z,18.24
2019-06-10T07:22:05.364Z,18.33
2019-06-10T07:22:48.079Z,18.36
2019-06-10T07:23:47.200Z,18.40
2019-06-10T07:24:47.728Z,18.47
2019-06-10T07:25:47.763Z,18.62
2019-06-10T07:26:53.977Z,18.79
2019-06-10T07:27:48.025Z,18.99
2019-06-10T07:28:47.653Z,19.15
2019-06-10T07:29:47.488Z,19.36
2019-06-10T07:30:51.797Z,19.48
2019-06-10T07:31:50.237Z,19.58
2019-06-10T07:32:47.953Z,19.55
2019-06-10T07:33:47.465Z,19.51
2019-06-10T07:34:47.174Z,19.47
2019-06-10T07:35:46.901Z,19.48
2019-06-10T07:36:46.894Z,19.53
2019-06-10T07:37:46.890Z,19.51
2019-06-10T07:38:49.077Z,19.60
2019-06-10T07:39:46.884Z,19.84
2019-06-10T07:40:46.857Z,19.95
2019-06-10T07:41:47.912Z,20.06
2019-06-10T07:42:46.825Z,20.09
2019-06-10T07:43:49.643Z,20.24
2019-06-10T07:44:46.865Z,20.50
2019-06-10T07:45:48.059Z,20.72
2019-06-10T07:46:46.783Z,20.90
2019-06-10T07:47:46.783Z,20.90
2019-06-10T07:48:48.648Z,20.76
2019-06-10T07:49:46.776Z,20.79
2019-06-10T07:50:46.756Z,20.81
2019-06-10T07:51:46.796Z,20.74
2019-06-10T07:52:47.004Z,20.65
2019-06-10T07:53:46.960Z,20.35
2019-06-10T07:54:46.690Z,20.25
2019-06-10T07:55:46.794Z,20.23
2019-06-10T07:56:50.182Z,20.09
2019-06-10T07:57:46.718Z,20.18
2019-06-10T07:58:47.611Z,20.35
2019-06-10T07:59:46.650Z,20.62
2019-06-10T08:00:48.480Z,20.84
2019-06-10T08:01:51.385Z,21.02
2019-06-10T08:02:47.661Z,21.02
2019-06-10T08:03:46.750Z,21.06
2019-06-10T08:04:46.586Z,20.86
2019-06-10T08:05:46.831Z,20.71
2019-06-10T08:06:49.787Z,20.76
2019-06-10T08:07:48.812Z,20.84
2019-06-10T08:08:47.301Z,20.96
2019-06-10T08:09:47.470Z,21.16
2019-06-10T08:10:48.096Z,21.21
2019-06-10T08:11:48.281Z,21.04
2019-06-10T08:12:48.279Z,20.96
2019-06-10T08:13:47.964Z,21.21
2019-06-10T08:14:47.882Z,21.51
2019-06-10T08:15:46.498Z,21.64
2019-06-10T08:16:46.842Z,21.71
2019-06-10T08:17:46.489Z,21.72
2019-06-10T08:19:12.272Z,21.69
2019-06-10T08:19:50.785Z,21.90
2019-06-10T08:20:47.709Z,22.16
2019-06-10T08:21:49.201Z,22.50
2019-06-10T08:22:54.017Z,22.87
2019-06-10T08:23:48.519Z,23.27
2019-06-10T08:24:47.783Z,23.60
2019-06-10T08:25:52.963Z,23.87
2019-06-10T08:26:47.783Z,24.16
2019-06-10T08:27:47.858Z,24.44
2019-06-10T08:28:47.949Z,24.79
2019-06-10T08:29:49.480Z,25.06
2019-06-10T08:30:46.382Z,25.31
2019-06-10T08:31:48.434Z,25.56
2019-06-10T08:32:46.828Z,25.75
2019-06-10T08:33:48.787Z,25.90
2019-06-10T08:34:47.947Z,25.83
2019-06-10T08:35:56.086Z,25.84
2019-06-10T08:36:50.587Z,25.91
2019-06-10T08:37:47.479Z,25.97
2019-06-10T08:38:48.608Z,26.01
2019-06-10T08:39:47.606Z,26.04
2019-06-10T08:40:48.355Z,26.05
2019-06-10T08:41:49.071Z,26.18
2019-06-10T08:42:47.480Z,26.32
2019-06-10T08:43:48.416Z,26.50
2019-06-10T08:44:48.429Z,26.77
2019-06-10T08:45:48.396Z,27.04
2019-06-10T08:46:47.270Z,27.10
2019-06-10T08:47:47.729Z,26.99
2019-06-10T08:48:48.113Z,26.87
2019-06-10T08:49:47.924Z,26.77
2019-06-10T08:50:49.631Z,26.55
2019-06-10T08:51:48.862Z,26.09
2019-06-10T08:53:03.319Z,25.94
2019-06-10T08:53:49.950Z,25.71
2019-06-10T08:54:49.244Z,25.69
2019-06-10T08:55:50.085Z,25.75
2019-06-10T08:56:49.454Z,25.69
2019-06-10T08:57:47.534Z,25.47
2019-06-10T08:58:49.687Z,24.94
2019-06-10T08:59:47.769Z,24.94
2019-06-10T09:00:48.227Z,24.92
2019-06-10T09:01:49.793Z,24.87
2019-06-10T09:02:49.978Z,24.85
2019-06-10T09:03:49.068Z,24.77
2019-06-10T09:04:48.788Z,24.92
2019-06-10T09:05:49.085Z,25.28
2019-06-10T09:06:49.122Z,25.71
2019-06-10T09:07:49.631Z,26.17
2019-06-10T09:08:49.936Z,26.58
2019-06-10T09:09:49.101Z,26.94
2019-06-10T09:10:49.427Z,27.35
2019-06-10T09:11:49.687Z,27.58
2019-06-10T09:12:50.479Z,27.53
2019-06-10T09:13:48.448Z,27.48
2019-06-10T09:14:48.359Z,27.42
2019-06-10T09:16:03.679Z,27.41
2019-06-10T09:16:48.891Z,27.73
2019-06-10T09:17:49.320Z,28.13
2019-06-10T09:18:49.370Z,28.65
2019-06-10T09:19:48.797Z,29.10
2019-06-10T09:20:50.982Z,29.53
2019-06-10T09:21:51.107Z,29.99
2019-06-10T09:22:54.361Z,30.49
2019-06-10T09:23:50.434Z,30.91
2019-06-10T09:24:49.381Z,31.33
2019-06-10T09:25:49.551Z,31.60
2019-06-10T09:26:49.550Z,31.93
2019-06-10T09:27:48.020Z,32.18
2019-06-10T09:28:50.809Z,32.13
2019-06-10T09:29:49.745Z,32.42
2019-06-10T09:30:52.540Z,32.73
2019-06-10T09:31:49.655Z,32.96
2019-06-10T09:32:51.178Z,33.17
2019-06-10T09:33:50.801Z,33.22
2019-06-10T09:34:52.208Z,33.46
2019-06-10T09:35:49.567Z,33.78
2019-06-10T09:36:49.656Z,33.94
2019-06-10T09:37:49.986Z,33.92
2019-06-10T09:38:48.719Z,34.04
2019-06-10T09:39:51.782Z,34.05
2019-06-10T09:40:51.342Z,34.11
2019-06-10T09:41:55.509Z,34.16
2019-06-10T09:42:49.669Z,34.29
2019-06-10T09:43:50.327Z,34.16
2019-06-10T09:44:48.700Z,33.86
2019-06-10T09:45:47.565Z,33.92
2019-06-10T09:46:48.621Z,34.05
2019-06-10T09:47:49.060Z,33.79
2019-06-10T09:48:49.769Z,33.82
2019-06-10T09:49:49.213Z,33.60
2019-06-10T09:50:50.432Z,33.37
2019-06-10T09:51:49.898Z,33.46
2019-06-10T09:52:50.987Z,33.60
2019-06-10T09:53:54.625Z,33.70
2019-06-10T09:54:50.262Z,33.86
2019-06-10T09:55:49.714Z,33.92
2019-06-10T09:56:48.450Z,33.87
2019-06-10T09:57:47.637Z,33.95
2019-06-10T09:58:48.111Z,34.05
2019-06-10T09:59:49.669Z,34.19
2019-06-10T10:00:50.481Z,34.16
2019-06-10T10:01:49.064Z,34.20
2019-06-10T10:02:48.792Z,34.17
2019-06-10T10:03:50.325Z,33.98
2019-06-10T10:04:50.593Z,33.53
2019-06-10T10:05:59.425Z,33.57
2019-06-10T10:06:48.959Z,33.49
2019-06-10T10:07:48.908Z,33.51
2019-06-10T10:08:52.406Z,33.52
2019-06-10T10:09:49.813Z,33.65
2019-06-10T10:10:50.125Z,33.48
2019-06-10T10:11:47.714Z,33.17
2019-06-10T10:12:47.395Z,33.01
2019-06-10T10:13:47.657Z,32.93
2019-06-10T10:14:48.042Z,32.88
2019-06-10T10:15:45.610Z,32.76
2019-06-10T10:16:49.376Z,32.69
2019-06-10T10:17:48.263Z,32.59
2019-06-10T10:18:48.967Z,32.49
2019-06-10T10:19:48.681Z,31.92
2019-06-10T10:20:48.061Z,31.65
2019-06-10T10:21:49.432Z,31.49
2019-06-10T10:22:47.653Z,31.08
2019-06-10T10:23:54.235Z,30.75
2019-06-10T10:24:47.487Z,30.47
2019-06-10T10:25:47.811Z,30.31
2019-06-10T10:26:47.172Z,30.27
2019-06-10T10:27:48.339Z,30.02
2019-06-10T10:28:48.009Z,29.19
2019-06-10T10:29:47.154Z,28.46
2019-06-10T10:30:46.997Z,28.46
2019-06-10T10:31:48.977Z,28.56
2019-06-10T10:32:48.940Z,28.70
2019-06-10T10:33:46.239Z,28.73
2019-06-10T10:34:47.001Z,28.95
2019-06-10T10:35:46.395Z,28.87
2019-06-10T10:36:47.067Z,28.84
2019-06-10T10:37:44.971Z,28.84
2019-06-10T10:38:44.964Z,28.97
2019-06-10T10:39:45.218Z,28.90
2019-06-10T10:40:47.468Z,28.72
2019-06-10T10:41:46.774Z,28.31
2019-06-10T10:42:51.364Z,28.21
2019-06-10T10:43:48.856Z,28.23
2019-06-10T10:44:49.201Z,28.33
2019-06-10T10:45:47.860Z,28.48
2019-06-10T10:46:45.658Z,28.72
2019-06-10T10:47:46.879Z,28.88
2019-06-10T10:48:45.044Z,28.73
2019-06-10T10:49:45.048Z,28.81
2019-06-10T10:50:45.578Z,28.85
2019-06-10T10:51:44.935Z,29.00
2019-06-10T10:52:46.338Z,29.11
2019-06-10T10:53:48.595Z,29.20
2019-06-10T10:54:46.742Z,29.28
2019-06-10T10:55:45.271Z,29.43
2019-06-10T10:56:46.185Z,29.59
2019-06-10T10:57:45.216Z,29.78
2019-06-10T10:58:46.987Z,29.89
2019-06-10T10:59:46.035Z,29.77
2019-06-10T11:00:46.818Z,29.82
2019-06-10T11:01:45.763Z,29.94
2019-06-10T11:02:46.783Z,29.93
2019-06-10T11:03:47.326Z,29.62
2019-06-10T11:04:46.115Z,29.63
2019-06-10T11:05:47.644Z,29.81
2019-06-10T11:06:46.116Z,30.09
2019-06-10T11:07:45.862Z,30.37
2019-06-10T11:08:46.579Z,30.50
2019-06-10T11:09:45.395Z,30.65
2019-06-10T11:10:47.456Z,30.59
2019-06-10T11:11:45.808Z,30.38
2019-06-10T11:12:44.976Z,30.26
2019-06-10T11:13:45.327Z,30.40
2019-06-10T11:14:44.890Z,30.54
2019-06-10T11:15:45.770Z,30.52
2019-06-10T11:16:45.234Z,30.56
2019-06-10T11:17:45.097Z,30.64
2019-06-10T11:18:45.209Z,30.40
2019-06-10T11:19:45.166Z,30.03
2019-06-10T11:20:45.270Z,29.77
2019-06-10T11:21:45.286Z,29.44
2019-06-10T11:22:45.816Z,29.38
2019-06-10T11:23:46.091Z,29.37
2019-06-10T11:24:46.186Z,29.35
2019-06-10T11:25:45.694Z,29.23
2019-06-10T11:26:45.729Z,29.13
2019-06-10T11:27:46.300Z,29.07
2019-06-10T11:28:45.278Z,28.91
2019-06-10T11:29:44.405Z,28.66
2019-06-10T11:30:45.262Z,28.46
2019-06-10T11:31:44.405Z,28.22
2019-06-10T11:32:46.004Z,28.25
2019-06-10T11:33:44.356Z,27.80
2019-06-10T11:34:45.678Z,27.64
2019-06-10T11:35:44.340Z,27.62
2019-06-10T11:36:45.892Z,27.73
2019-06-10T11:37:44.318Z,27.88
2019-06-10T11:38:44.301Z,27.98
2019-06-10T11:39:44.337Z,27.98
2019-06-10T11:40:44.302Z,27.89
2019-06-10T11:41:44.266Z,27.85
2019-06-10T11:42:44.267Z,27.77
2019-06-10T11:43:44.274Z,27.74
2019-06-10T11:44:44.240Z,27.70
2019-06-10T11:45:48.366Z,27.73
2019-06-10T11:46:46.418Z,27.58
2019-06-10T11:47:44.234Z,27.01
2019-06-10T11:48:44.470Z,26.55
2019-06-10T11:49:44.254Z,26.31
2019-06-10T11:50:44.211Z,26.17
2019-06-10T11:51:44.167Z,26.11
2019-06-10T11:52:44.221Z,25.90
2019-06-10T11:53:44.228Z,25.54
2019-06-10T11:54:55.624Z,25.31
2019-06-10T11:55:45.128Z,25.06
2019-06-10T11:56:44.137Z,25.07
2019-06-10T11:57:44.129Z,24.88
2019-06-10T11:58:44.095Z,24.80
2019-06-10T11:59:44.231Z,24.76
2019-06-10T12:00:44.102Z,24.57
2019-06-10T12:01:44.063Z,24.63
2019-06-10T12:02:44.939Z,24.57
2019-06-10T12:03:44.056Z,24.64
2019-06-10T12:04:44.023Z,24.75
2019-06-10T12:05:44.052Z,24.79
2019-06-10T12:06:44.032Z,24.79
2019-06-10T12:07:44.046Z,24.90
2019-06-10T12:08:44.003Z,24.92
2019-06-10T12:09:43.984Z,24.83
2019-06-10T12:10:43.963Z,24.68
2019-06-10T12:11:44.087Z,24.41
2019-06-10T12:12:43.952Z,24.32
2019-06-10T12:13:43.933Z,24.34
2019-06-10T12:14:43.930Z,24.52
2019-06-10T12:16:30.568Z,24.68
2019-06-10T12:17:17.644Z,24.82
2019-06-10T12:17:50.913Z,24.91
2019-06-10T12:18:44.875Z,25.02
2019-06-10T12:19:43.877Z,25.10
2019-06-10T12:20:43.892Z,25.10
2019-06-10T12:21:43.846Z,25.16
2019-06-10T12:22:43.875Z,25.02
2019-06-10T12:23:43.850Z,25.00
2019-06-10T12:24:43.817Z,24.85
2019-06-10T12:25:47.669Z,24.87
2019-06-10T12:26:43.809Z,24.79
2019-06-10T12:27:43.798Z,24.73
2019-06-10T12:28:43.795Z,24.77
2019-06-10T12:29:43.757Z,24.83
2019-06-10T12:30:43.747Z,24.82
2019-06-10T12:31:43.738Z,24.88
2019-06-10T12:32:43.767Z,25.01
2019-06-10T12:33:43.721Z,25.15
2019-06-10T12:34:46.201Z,25.34
2019-06-10T12:35:43.700Z,25.43
2019-06-10T12:36:43.694Z,25.54
2019-06-10T12:37:43.727Z,25.59
2019-06-10T12:38:43.775Z,25.52
2019-06-10T12:39:43.651Z,25.50
2019-06-10T12:40:43.663Z,25.54
2019-06-10T12:41:43.639Z,25.61
2019-06-10T12:42:43.620Z,25.54
2019-06-10T12:43:43.671Z,25.49
2019-06-10T12:44:43.620Z,25.44
2019-06-10T12:45:43.938Z,25.39
2019-06-10T12:46:43.584Z,25.37
2019-06-10T12:47:43.572Z,25.32
2019-06-10T12:48:43.596Z,25.17
2019-06-10T12:49:43.558Z,25.07
2019-06-10T12:50:43.541Z,25.12
2019-06-10T12:51:44.051Z,25.20
2019-06-10T12:52:43.518Z,25.27